createdAt,value
2023-11-10T00:00:25.612Z,99360.41
2023-11-10T00:02:52.400Z,99360.34
2023-11-10T00:05:19.144Z,99355.94
2023-11-10T00:07:45.882Z,99352.66
2023-11-10T00:10:12.626Z,99350.13
2023-11-10T00:12:39.236Z,99346.69
2023-11-10T00:15:06.302Z,99344.16
2023-11-10T00:17:32.867Z,99334.63
2023-11-10T00:19:59.450Z,99337.41
2023-11-10T00:22:26.039Z,99337.53
2023-11-10T00:24:52.622Z,99337.53
2023-11-10T00:27:19.258Z,99334.88
2023-11-10T00:29:46.087Z,99332.31
2023-11-10T00:32:13.141Z,99337.53
2023-11-10T00:34:40.291Z,99341.13
2023-11-10T00:37:06.925Z,99342.09
2023-11-10T00:39:33.562Z,99334.97
2023-11-10T00:42:00.147Z,99332.38
2023-11-10T00:44:26.920Z,99339.56
2023-11-10T00:46:53.527Z,99343.13
2023-11-10T00:49:20.095Z,99350.19
2023-11-10T00:51:46.746Z,99369.75
2023-11-10T00:54:13.366Z,99366.25
2023-11-10T00:56:39.980Z,99368.16
2023-11-10T00:59:06.551Z,99375.53
2023-11-10T01:01:35.082Z,99383.25
2023-11-10T01:04:01.776Z,99375.78
2023-11-10T01:06:28.757Z,99385.88
2023-11-10T01:08:55.646Z,99388.06
2023-11-10T01:11:22.236Z,99391.84
2023-11-10T01:13:48.796Z,99391.84
2023-11-10T01:16:15.479Z,99398.19
2023-11-10T01:18:42.389Z,99401.84
2023-11-10T01:21:09.149Z,99399.25
2023-11-10T01:23:35.857Z,99390.50
2023-11-10T01:26:02.480Z,99386.25
2023-11-10T01:28:29.041Z,99392.47
2023-11-10T01:30:55.688Z,99389.00
2023-11-10T01:33:22.541Z,99389.00
2023-11-10T01:35:49.250Z,99390.75
2023-11-10T01:38:15.896Z,99389.88
2023-11-10T01:40:43.085Z,99372.72
2023-11-10T01:43:10.672Z,99389.16
2023-11-10T01:45:37.325Z,99387.56
2023-11-10T01:48:04.957Z,99389.28
2023-11-10T01:50:32.168Z,99391.72
2023-11-10T01:52:59.329Z,99384.69
2023-11-10T01:55:26.443Z,99391.72
2023-11-10T01:57:53.414Z,99385.56
2023-11-10T02:00:20.222Z,99387.34
2023-11-10T02:02:46.989Z,99372.19
2023-11-10T02:05:13.607Z,99369.41
2023-11-10T02:07:41.089Z,99374.72
2023-11-10T02:10:07.858Z,99365.88
2023-11-10T02:12:34.482Z,99363.13
2023-11-10T02:15:01.103Z,99360.38
2023-11-10T02:17:27.688Z,99354.09
2023-11-10T02:19:54.294Z,99358.34
2023-11-10T02:22:20.875Z,99356.50
2023-11-10T02:24:47.543Z,99354.03
2023-11-10T02:27:14.154Z,99357.53
2023-11-10T02:29:41.570Z,99359.31
2023-11-10T02:32:08.139Z,99359.38
2023-11-10T02:34:34.767Z,99358.41
2023-11-10T02:37:01.348Z,99356.56
2023-11-10T02:39:27.990Z,99361.75
2023-11-10T02:41:54.580Z,99362.50
2023-11-10T02:44:21.483Z,99360.88
2023-11-10T02:46:48.342Z,99368.75
2023-11-10T02:49:14.953Z,99367.16
2023-11-10T02:51:41.516Z,99376.06
2023-11-10T02:54:08.098Z,99370.75
2023-11-10T02:56:34.708Z,99373.28
2023-11-10T02:59:01.306Z,99367.97
2023-11-10T03:01:28.079Z,99364.41
2023-11-10T03:03:54.816Z,99364.41
2023-11-10T03:06:21.486Z,99365.16
2023-11-10T03:08:48.090Z,99361.66
2023-11-10T03:11:14.701Z,99362.47
2023-11-10T03:13:42.191Z,99355.34
2023-11-10T03:16:08.863Z,99353.78
2023-11-10T03:18:35.527Z,99356.28
2023-11-10T03:21:02.220Z,99356.28
2023-11-10T03:23:28.862Z,99356.16
2023-11-10T03:25:55.481Z,99355.28
2023-11-10T03:28:22.066Z,99345.81
2023-11-10T03:30:48.680Z,99355.28
2023-11-10T03:33:15.290Z,99356.09
2023-11-10T03:35:41.892Z,99353.44
2023-11-10T03:38:08.509Z,99347.28
2023-11-10T03:40:35.109Z,99355.22
2023-11-10T03:43:01.681Z,99349.81
2023-11-10T03:45:28.275Z,99354.19
2023-11-10T03:47:54.921Z,99350.56
2023-11-10T03:50:21.524Z,99349.66
2023-11-10T03:52:48.107Z,99355.75
2023-11-10T03:55:14.663Z,99333.59
2023-11-10T03:57:41.274Z,99335.50
2023-11-10T04:00:08.468Z,99342.72
2023-11-10T04:02:35.260Z,99338.38
2023-11-10T04:05:01.844Z,99340.25
2023-11-10T04:07:28.506Z,99343.00
2023-11-10T04:09:55.176Z,99344.75
2023-11-10T04:12:21.801Z,99341.22
2023-11-10T04:14:48.417Z,99342.94
2023-11-10T04:17:15.042Z,99349.13
2023-11-10T04:19:41.595Z,99342.09
2023-11-10T04:22:08.164Z,99352.06
2023-11-10T04:24:34.965Z,99346.88
2023-11-10T04:27:01.541Z,99346.88
2023-11-10T04:29:28.158Z,99344.22
2023-11-10T04:31:54.787Z,99339.66
2023-11-10T04:34:21.383Z,99334.41
2023-11-10T04:36:48.042Z,99332.69
2023-11-10T04:39:14.789Z,99337.19
2023-11-10T04:41:41.393Z,99329.22
2023-11-10T04:44:07.965Z,99328.16
2023-11-10T04:46:34.572Z,99326.50
2023-11-10T04:49:01.149Z,99337.25
2023-11-10T04:51:30.841Z,99329.41
2023-11-10T04:53:57.427Z,99334.66
2023-11-10T04:56:24.024Z,99342.66
2023-11-10T04:58:50.624Z,99344.44
2023-11-10T05:01:17.203Z,99340.81
2023-11-10T05:03:43.972Z,99344.44
2023-11-10T05:06:10.592Z,99339.03
2023-11-10T05:08:37.233Z,99342.47
2023-11-10T05:11:03.852Z,99341.75
2023-11-10T05:13:30.415Z,99339.94
2023-11-10T05:15:57.063Z,99344.41
2023-11-10T05:20:53.197Z,99351.38
2023-11-10T05:23:19.813Z,99350.56
2023-11-10T05:25:46.507Z,99362.03
2023-11-10T05:28:13.092Z,99354.03
2023-11-10T05:30:39.693Z,99358.41
2023-11-10T05:33:08.216Z,99362.84
2023-11-10T05:35:35.034Z,99358.53
2023-11-10T05:38:01.601Z,99357.72
2023-11-10T05:40:28.260Z,99359.59
2023-11-10T05:42:54.892Z,99356.78
2023-11-10T05:45:21.511Z,99356.88
2023-11-10T05:47:48.170Z,99357.66
2023-11-10T05:50:14.786Z,99361.13
2023-11-10T05:52:41.350Z,99364.69
2023-11-10T05:55:08.180Z,99367.41
2023-11-10T05:57:34.853Z,99370.97
2023-11-10T06:00:01.452Z,99375.31
2023-11-10T06:02:28.000Z,99376.91
2023-11-10T06:04:54.752Z,99373.41
2023-11-10T06:07:21.374Z,99373.22
2023-11-10T06:09:48.062Z,99370.63
2023-11-10T06:12:14.756Z,99374.25
2023-11-10T06:14:41.352Z,99378.72
2023-11-10T06:17:07.861Z,99383.97
2023-11-10T06:19:34.435Z,99379.63
2023-11-10T06:22:00.981Z,99370.75
2023-11-10T06:24:27.597Z,99379.63
2023-11-10T06:26:54.269Z,99369.06
2023-11-10T06:29:20.836Z,99372.88
2023-11-10T06:31:47.688Z,99377.38
2023-11-10T06:34:14.622Z,99374.59
2023-11-10T06:36:41.216Z,99375.53
2023-11-10T06:39:07.729Z,99371.19
2023-11-10T06:41:34.353Z,99369.47
2023-11-10T06:44:00.948Z,99383.53
2023-11-10T06:46:27.785Z,99384.41
2023-11-10T06:48:54.692Z,99387.06
2023-11-10T06:51:21.620Z,99379.03
2023-11-10T06:53:48.384Z,99380.75
2023-11-10T06:56:15.403Z,99378.03
2023-11-10T06:58:41.974Z,99382.41
2023-11-10T07:01:09.808Z,99373.47
2023-11-10T07:03:36.551Z,99381.34
2023-11-10T07:06:03.313Z,99384.06
2023-11-10T07:08:29.921Z,99388.28
2023-11-10T07:10:56.537Z,99384.94
2023-11-10T07:13:23.116Z,99385.06
2023-11-10T07:15:49.827Z,99385.25
2023-11-10T07:18:16.656Z,99389.66
2023-11-10T07:20:43.304Z,99394.94
2023-11-10T07:23:09.905Z,99395.63
2023-11-10T07:25:36.606Z,99398.16
2023-11-10T07:28:03.457Z,99389.16
2023-11-10T07:30:30.156Z,99395.22
2023-11-10T07:32:56.895Z,99390.13
2023-11-10T07:35:23.509Z,99404.44
2023-11-10T07:37:50.091Z,99395.00
2023-11-10T07:40:17.034Z,99398.47
2023-11-10T07:42:44.206Z,99399.50
2023-11-10T07:45:11.509Z,99398.59
2023-11-10T07:47:38.127Z,99387.16
2023-11-10T07:50:05.313Z,99391.97
2023-11-10T07:52:31.860Z,99394.50
2023-11-10T07:54:58.879Z,99397.00
2023-11-10T07:57:28.319Z,99393.31
2023-11-10T07:59:54.992Z,99399.50
2023-11-10T08:02:21.518Z,99396.78
2023-11-10T08:04:48.143Z,99392.28
2023-11-10T08:07:14.761Z,99389.47
2023-11-10T08:09:41.354Z,99391.88
2023-11-10T08:12:08.181Z,99390.81
2023-11-10T08:14:34.831Z,99390.81
2023-11-10T08:17:01.437Z,99399.63
2023-11-10T08:19:28.029Z,99397.84
2023-11-10T08:21:55.336Z,99392.00
2023-11-10T08:24:22.889Z,99405.16
2023-11-10T08:26:49.465Z,99402.34
2023-11-10T08:29:16.023Z,99409.25
2023-11-10T08:31:42.646Z,99410.06
2023-11-10T08:34:09.402Z,99413.59
2023-11-10T08:36:36.142Z,99408.16
2023-11-10T08:39:02.781Z,99415.78
2023-11-10T08:41:29.393Z,99405.91
2023-11-10T08:43:55.976Z,99410.41
2023-11-10T08:46:22.588Z,99407.69
2023-11-10T08:48:49.289Z,99407.69
2023-11-10T08:51:15.903Z,99419.94
2023-11-10T08:53:45.231Z,99416.25
2023-11-10T08:56:12.765Z,99423.00
2023-11-10T08:58:39.370Z,99419.38
2023-11-10T09:01:06.033Z,99422.94
2023-11-10T09:03:32.724Z,99406.88
2023-11-10T09:05:59.428Z,99417.50
2023-11-10T09:08:26.029Z,99428.13
2023-11-10T09:10:52.574Z,99416.59
2023-11-10T09:13:19.254Z,99413.66
2023-11-10T09:15:53.530Z,99410.91
2023-11-10T09:18:26.002Z,99416.13
2023-11-10T09:20:52.624Z,99412.59
2023-11-10T09:23:19.267Z,99424.03
2023-11-10T09:25:45.923Z,99414.09
2023-11-10T09:28:12.621Z,99422.16
2023-11-10T09:30:39.261Z,99413.22
2023-11-10T09:33:05.909Z,99418.66
2023-11-10T09:35:32.506Z,99426.53
2023-11-10T09:37:59.160Z,99421.31
2023-11-10T09:40:25.737Z,99422.00
2023-11-10T09:42:54.696Z,99435.16
2023-11-10T09:45:23.363Z,99440.47
2023-11-10T09:47:51.873Z,99438.47
2023-11-10T09:50:18.594Z,99432.09
2023-11-10T09:52:46.075Z,99436.53
2023-11-10T09:55:12.672Z,99440.28
2023-11-10T09:57:39.326Z,99439.19
2023-11-10T10:00:06.517Z,99441.66
2023-11-10T10:02:36.052Z,99447.91
2023-11-10T10:05:04.243Z,99455.22
2023-11-10T10:07:30.823Z,99445.59
2023-11-10T10:09:57.521Z,99441.13
2023-11-10T10:12:24.099Z,99437.53
2023-11-10T10:14:54.614Z,99437.53
2023-11-10T10:17:30.322Z,99447.41
2023-11-10T10:20:07.183Z,99446.59
2023-11-10T10:22:33.950Z,99451.09
2023-11-10T10:25:00.686Z,99441.94
2023-11-10T10:27:27.340Z,99445.28
2023-11-10T10:29:53.929Z,99457.63
2023-11-10T10:32:20.536Z,99455.75
2023-11-10T10:34:47.198Z,99455.75
2023-11-10T10:37:13.768Z,99454.69
2023-11-10T10:39:41.172Z,99453.75
2023-11-10T10:42:09.453Z,99459.94
2023-11-10T10:44:36.063Z,99443.06
2023-11-10T10:47:02.793Z,99444.75
2023-11-10T10:49:29.394Z,99448.16
2023-11-10T10:51:56.204Z,99441.66
2023-11-10T10:54:22.846Z,99439.66
2023-11-10T10:56:49.435Z,99441.25
2023-11-10T10:59:16.624Z,99445.50
2023-11-10T11:01:44.259Z,99440.31
2023-11-10T11:04:26.062Z,99437.38
2023-11-10T11:07:01.542Z,99445.28
2023-11-10T11:09:55.831Z,99443.63
2023-11-10T11:12:47.342Z,99447.06
2023-11-10T11:15:23.501Z,99441.63
2023-11-10T11:18:14.744Z,99441.56
2023-11-10T11:20:41.350Z,99450.41
2023-11-10T11:23:08.827Z,99447.63
2023-11-10T11:25:37.132Z,99438.66
2023-11-10T11:28:03.795Z,99440.38
2023-11-10T11:30:37.456Z,99445.69
2023-11-10T11:33:10.620Z,99445.75
2023-11-10T11:35:46.670Z,99441.31
2023-11-10T11:38:28.932Z,99443.09
2023-11-10T11:40:58.613Z,99444.69
2023-11-10T11:43:25.309Z,99441.81
2023-11-10T11:45:56.010Z,99436.34
2023-11-10T11:48:22.611Z,99434.44
2023-11-10T11:50:52.369Z,99433.31
2023-11-10T11:53:24.944Z,99446.63
2023-11-10T11:55:54.591Z,99442.41
2023-11-10T11:58:21.272Z,99447.72
2023-11-10T12:00:47.905Z,99449.72
2023-11-10T12:03:14.965Z,99443.75
2023-11-10T12:05:42.144Z,99443.75
2023-11-10T12:08:09.050Z,99446.13
2023-11-10T12:10:35.624Z,99447.00
2023-11-10T12:13:02.229Z,99447.13
2023-11-10T12:15:28.932Z,99446.34
2023-11-10T12:17:55.621Z,99455.03
2023-11-10T12:20:25.175Z,99447.06
2023-11-10T12:22:55.261Z,99455.03
2023-11-10T12:25:22.248Z,99439.09
2023-11-10T12:27:48.955Z,99437.34
2023-11-10T12:30:15.700Z,99437.28
2023-11-10T12:32:42.382Z,99435.50
2023-11-10T12:35:09.814Z,99440.69
2023-11-10T12:37:39.609Z,99437.22
2023-11-10T12:40:10.177Z,99438.94
2023-11-10T12:42:36.885Z,99438.16
2023-11-10T12:45:08.744Z,99452.19
2023-11-10T12:47:35.319Z,99443.19
2023-11-10T12:50:02.504Z,99444.13
2023-11-10T12:52:29.150Z,99444.06
2023-11-10T12:54:55.817Z,99449.28
2023-11-10T12:57:22.441Z,99447.72
2023-11-10T12:59:49.083Z,99444.25
2023-11-10T13:02:15.663Z,99437.66
2023-11-10T13:04:42.300Z,99443.47
2023-11-10T13:07:09.036Z,99442.81
2023-11-10T13:09:35.676Z,99446.63
2023-11-10T13:12:02.329Z,99445.59
2023-11-10T13:14:28.918Z,99440.38
2023-11-10T13:16:55.575Z,99442.47
2023-11-10T13:19:22.168Z,99445.66
2023-11-10T13:21:48.811Z,99448.72
2023-11-10T13:24:15.354Z,99448.97
2023-11-10T13:26:41.981Z,99451.03
2023-11-10T13:29:08.557Z,99449.44
2023-11-10T13:31:35.234Z,99443.56
2023-11-10T13:34:01.922Z,99451.91
2023-11-10T13:36:28.535Z,99457.44
2023-11-10T13:38:55.159Z,99460.09
2023-11-10T13:41:27.663Z,99455.75
2023-11-10T13:43:56.873Z,99450.44
2023-11-10T13:46:25.986Z,99447.00
2023-11-10T13:48:53.140Z,99446.22
2023-11-10T13:51:19.733Z,99447.22
2023-11-10T13:53:46.306Z,99450.75
2023-11-10T13:56:12.906Z,99450.75
2023-11-10T13:58:39.525Z,99454.09
2023-11-10T14:01:06.246Z,99456.50
2023-11-10T14:03:39.398Z,99457.78
2023-11-10T14:06:06.402Z,99452.09
2023-11-10T14:08:32.945Z,99456.63
2023-11-10T14:10:59.512Z,99451.75
2023-11-10T14:13:26.041Z,99453.03
2023-11-10T14:15:52.634Z,99459.53
2023-11-10T14:18:19.196Z,99460.47
2023-11-10T14:20:45.794Z,99457.00
2023-11-10T14:23:12.368Z,99466.78
2023-11-10T14:25:38.925Z,99466.84
2023-11-10T14:28:05.560Z,99462.38
2023-11-10T14:30:32.210Z,99465.97
2023-11-10T14:32:58.832Z,99466.91
2023-11-10T14:35:25.387Z,99468.69
2023-11-10T14:37:51.969Z,99468.69
2023-11-10T14:40:19.363Z,99466.91
2023-11-10T14:42:46.116Z,99466.91
2023-11-10T14:45:12.700Z,99477.63
2023-11-10T14:47:39.956Z,99466.03
2023-11-10T14:50:06.691Z,99471.38
2023-11-10T14:52:33.249Z,99477.63
2023-11-10T14:54:59.854Z,99474.19
2023-11-10T14:57:26.462Z,99476.84
2023-11-10T14:59:53.007Z,99470.72
2023-11-10T15:02:19.576Z,99475.13
2023-11-10T15:04:46.255Z,99485.81
2023-11-10T15:07:13.281Z,99476.97
2023-11-10T15:09:40.025Z,99473.38
2023-11-10T15:12:10.129Z,99479.63
2023-11-10T15:14:37.344Z,99472.53
2023-11-10T15:17:07.276Z,99469.88
2023-11-10T15:19:36.864Z,99471.53
2023-11-10T15:22:03.676Z,99469.88
2023-11-10T15:24:30.349Z,99472.47
2023-11-10T15:26:56.929Z,99463.69
2023-11-10T15:29:23.539Z,99463.81
2023-11-10T15:31:50.310Z,99463.94
2023-11-10T15:34:18.384Z,99463.09
2023-11-10T15:36:44.971Z,99466.84
2023-11-10T15:39:15.914Z,99464.44
2023-11-10T15:41:43.151Z,99464.63
2023-11-10T15:44:09.718Z,99468.22
2023-11-10T15:46:36.420Z,99470.06
2023-11-10T15:49:03.096Z,99473.78
2023-11-10T15:51:33.917Z,99472.84
2023-11-10T15:54:06.214Z,99469.28
2023-11-10T15:56:32.807Z,99473.66
2023-11-10T15:58:59.409Z,99469.91
2023-11-10T16:01:26.035Z,99475.06
2023-11-10T16:03:52.867Z,99470.63
2023-11-10T16:06:19.506Z,99475.06
2023-11-10T16:08:46.140Z,99475.88
2023-11-10T16:11:12.681Z,99472.34
2023-11-10T16:13:39.277Z,99468.03
2023-11-10T16:16:08.919Z,99469.81
2023-11-10T16:18:35.710Z,99470.63
2023-11-10T16:21:02.325Z,99473.34
2023-11-10T16:23:28.893Z,99472.47
2023-11-10T16:25:55.460Z,99470.78
2023-11-10T16:28:22.056Z,99463.03
2023-11-10T16:30:48.764Z,99476.88
2023-11-10T16:33:15.425Z,99475.00
2023-11-10T16:35:41.949Z,99467.03
2023-11-10T16:38:08.431Z,99473.09
2023-11-10T16:40:34.969Z,99476.59
2023-11-10T16:43:01.516Z,99481.13
2023-11-10T16:45:28.093Z,99477.00
2023-11-10T16:47:54.675Z,99482.19
2023-11-10T16:50:21.315Z,99486.63
2023-11-10T16:52:47.858Z,99483.22
2023-11-10T16:55:14.559Z,99481.31
2023-11-10T16:57:41.203Z,99481.25
2023-11-10T17:00:08.253Z,99489.22
2023-11-10T17:02:42.407Z,99483.97
2023-11-10T17:05:11.917Z,99487.63
2023-11-10T17:07:39.096Z,99484.06
2023-11-10T17:10:07.188Z,99485.78
2023-11-10T17:12:33.805Z,99484.97
2023-11-10T17:15:00.320Z,99484.94
2023-11-10T17:17:26.954Z,99492.91
2023-11-10T17:19:53.486Z,99484.97
2023-11-10T17:22:20.025Z,99492.94
2023-11-10T17:24:46.632Z,99489.38
2023-11-10T17:27:13.287Z,99488.44
2023-11-10T17:29:39.850Z,99488.44
2023-11-10T17:32:07.078Z,99491.19
2023-11-10T17:34:33.834Z,99493.84
2023-11-10T17:37:00.365Z,99497.38
2023-11-10T17:39:27.204Z,99499.19
2023-11-10T17:41:53.689Z,99490.34
2023-11-10T17:44:20.332Z,99500.13
2023-11-10T17:46:46.966Z,99489.41
2023-11-10T17:49:13.681Z,99497.41
2023-11-10T17:51:40.313Z,99482.38
2023-11-10T17:54:07.101Z,99491.34
2023-11-10T17:56:33.698Z,99487.88
2023-11-10T17:59:00.240Z,99494.06
2023-11-10T18:01:26.844Z,99489.75
2023-11-10T18:03:53.539Z,99488.09
2023-11-10T18:06:20.171Z,99497.94
2023-11-10T18:08:47.107Z,99498.94
2023-11-10T18:11:22.838Z,99499.72
2023-11-10T18:13:49.230Z,99490.88
2023-11-10T18:16:15.857Z,99503.44
2023-11-10T18:18:42.487Z,99500.06
2023-11-10T18:21:09.024Z,99496.56
2023-11-10T18:23:35.527Z,99491.31
2023-11-10T18:26:02.036Z,99495.88
2023-11-10T18:28:28.610Z,99494.16
2023-11-10T18:30:55.377Z,99489.81
2023-11-10T18:33:22.001Z,99497.03
2023-11-10T18:35:48.675Z,99497.03
2023-11-10T18:38:15.212Z,99492.56
2023-11-10T18:40:41.773Z,99494.44
2023-11-10T18:43:08.381Z,99489.13
2023-11-10T18:45:34.983Z,99490.03
2023-11-10T18:48:01.536Z,99492.69
2023-11-10T18:50:28.203Z,99490.97
2023-11-10T18:52:57.321Z,99500.66
2023-11-10T18:55:23.907Z,99489.25
2023-11-10T18:57:50.759Z,99494.56
2023-11-10T19:00:17.735Z,99498.00
2023-11-10T19:02:44.385Z,99491.91
2023-11-10T19:05:11.072Z,99490.22
2023-11-10T19:07:37.642Z,99493.91
2023-11-10T19:10:04.269Z,99494.66
2023-11-10T19:12:30.815Z,99492.94
2023-11-10T19:14:57.479Z,99491.94
2023-11-10T19:17:24.057Z,99489.25
2023-11-10T19:19:50.675Z,99483.97
2023-11-10T19:22:17.286Z,99487.63
2023-11-10T19:24:43.927Z,99487.78
2023-11-10T19:27:10.539Z,99482.31
2023-11-10T19:29:37.102Z,99482.31
2023-11-10T19:32:03.738Z,99485.06
2023-11-10T19:34:30.446Z,99490.28
2023-11-10T19:36:57.056Z,99498.25
2023-11-10T19:39:24.610Z,99493.91
2023-11-10T19:41:51.521Z,99490.50
2023-11-10T19:44:18.007Z,99494.03
2023-11-10T19:46:44.584Z,99492.28
2023-11-10T19:49:11.548Z,99494.09
2023-11-10T19:56:46.519Z,99498.66
2023-11-10T20:01:42.998Z,99505.56
2023-11-10T20:04:09.580Z,99504.66
2023-11-10T20:06:36.240Z,99503.91
2023-11-10T20:09:02.866Z,99503.03
2023-11-10T20:11:29.451Z,99508.34
2023-11-10T20:13:55.965Z,99505.63
2023-11-10T20:16:22.568Z,99508.16
2023-11-10T20:18:49.131Z,99507.31
2023-11-10T20:21:18.950Z,99513.44
2023-11-10T20:23:45.486Z,99510.88
2023-11-10T20:26:12.073Z,99510.88
2023-11-10T20:28:38.872Z,99514.34
2023-11-10T20:31:05.546Z,99508.13
2023-11-10T20:33:33.654Z,99514.28
2023-11-10T20:36:00.335Z,99515.16
2023-11-10T20:38:26.865Z,99506.38
2023-11-10T20:40:53.455Z,99504.53
2023-11-10T20:43:20.480Z,99505.47
2023-11-10T20:45:47.350Z,99508.16
2023-11-10T20:48:14.079Z,99507.19
2023-11-10T20:50:40.707Z,99506.38
2023-11-10T20:53:07.759Z,99508.22
2023-11-10T20:55:35.237Z,99507.31
2023-11-10T20:58:01.809Z,99503.84
2023-11-10T21:00:28.447Z,99503.84
2023-11-10T21:02:55.280Z,99506.44
2023-11-10T21:05:21.999Z,99507.31
2023-11-10T21:07:48.522Z,99505.47
2023-11-10T21:10:15.106Z,99512.50
2023-11-10T21:12:42.767Z,99512.50
2023-11-10T21:15:10.418Z,99503.84
2023-11-10T21:17:37.067Z,99503.72
2023-11-10T21:20:04.046Z,99504.59
2023-11-10T21:22:30.597Z,99502.00
2023-11-10T21:24:57.181Z,99498.47
2023-11-10T21:27:23.809Z,99494.09
2023-11-10T21:29:50.395Z,99489.75
2023-11-10T21:32:17.228Z,99492.47
2023-11-10T21:34:44.381Z,99489.88
2023-11-10T21:37:10.924Z,99486.28
2023-11-10T21:39:37.652Z,99487.09
2023-11-10T21:42:04.673Z,99486.19
2023-11-10T21:44:31.316Z,99485.31
2023-11-10T21:46:57.938Z,99480.88
2023-11-10T21:49:24.908Z,99485.31
2023-11-10T21:51:52.007Z,99481.78
2023-11-10T21:54:18.646Z,99484.38
2023-11-10T21:56:45.240Z,99479.25
2023-11-10T21:59:11.898Z,99480.97
2023-11-10T22:01:38.491Z,99477.41
2023-11-10T22:04:05.174Z,99474.69
2023-11-10T22:06:31.847Z,99482.72
2023-11-10T22:08:58.420Z,99483.53
2023-11-10T22:11:25.063Z,99490.69
2023-11-10T22:13:51.604Z,99482.88
2023-11-10T22:16:18.193Z,99484.56
2023-11-10T22:18:45.368Z,99488.94
2023-11-10T22:21:11.999Z,99484.56
2023-11-10T22:23:38.627Z,99480.22
2023-11-10T22:26:05.154Z,99486.44
2023-11-10T22:28:34.485Z,99483.00
2023-11-10T22:31:01.189Z,99484.56
2023-11-10T22:33:27.918Z,99483.75
2023-11-10T22:35:54.566Z,99486.44
2023-11-10T22:38:21.164Z,99486.44
2023-11-10T22:40:47.755Z,99482.13
2023-11-10T22:43:14.326Z,99482.19
2023-11-10T22:45:41.005Z,99483.13
2023-11-10T22:48:07.777Z,99485.72
2023-11-10T22:50:34.427Z,99491.03
2023-11-10T22:53:00.996Z,99491.88
2023-11-10T22:55:27.547Z,99489.22
2023-11-10T22:57:54.140Z,99491.75
2023-11-10T23:00:20.758Z,99492.47
2023-11-10T23:02:47.442Z,99498.00
2023-11-10T23:05:14.057Z,99497.19
2023-11-10T23:07:40.656Z,99491.88
2023-11-10T23:10:07.680Z,99506.03
2023-11-10T23:12:34.275Z,99498.94
2023-11-10T23:15:00.930Z,99504.25
2023-11-10T23:17:27.560Z,99502.50
2023-11-10T23:19:54.194Z,99512.28
2023-11-10T23:22:20.775Z,99504.31
2023-11-10T23:24:47.342Z,99507.81
2023-11-10T23:27:14.149Z,99498.00
2023-11-10T23:29:41.879Z,99499.78
2023-11-10T23:32:08.489Z,99499.72
2023-11-10T23:34:35.077Z,99502.38
2023-11-10T23:37:01.625Z,99503.31
2023-11-10T23:39:28.208Z,99499.78
2023-11-10T23:41:54.794Z,99498.94
2023-11-10T23:44:21.432Z,99502.38
2023-11-10T23:46:48.058Z,99497.06
2023-11-10T23:49:14.758Z,99501.66
2023-11-10T23:51:41.420Z,99500.66
2023-11-10T23:54:08.118Z,99506.91
2023-11-10T23:56:34.742Z,99507.75
2023-11-10T23:59:01.297Z,99503.97
